sensor_id;sensor_type;location;lat;lon;timestamp;temperature;humidity
72756;SHT30;60881;55.002;73.232;2022-07-29T00:01:27;18.55;91.87
72756;SHT30;60881;55.002;73.232;2022-07-29T00:04:01;18.59;91.89
72756;SHT30;60881;55.002;73.232;2022-07-29T00:06:28;18.61;91.95
72756;SHT30;60881;55.002;73.232;2022-07-29T00:08:55;18.59;91.80
72756;SHT30;60881;55.002;73.232;2022-07-29T00:11:22;18.63;91.77
72756;SHT30;60881;55.002;73.232;2022-07-29T00:13:54;18.68;91.78
72756;SHT30;60881;55.002;73.232;2022-07-29T00:16:22;18.68;91.44
72756;SHT30;60881;55.002;73.232;2022-07-29T00:18:49;18.70;91.32
72756;SHT30;60881;55.002;73.232;2022-07-29T00:21:15;18.70;91.20
72756;SHT30;60881;55.002;73.232;2022-07-29T00:23:43;18.74;91.21
72756;SHT30;60881;55.002;73.232;2022-07-29T00:26:11;18.73;91.59
72756;SHT30;60881;55.002;73.232;2022-07-29T00:28:47;18.77;91.30
72756;SHT30;60881;55.002;73.232;2022-07-29T00:31:14;18.80;91.39
72756;SHT30;60881;55.002;73.232;2022-07-29T00:33:41;18.77;91.23
72756;SHT30;60881;55.002;73.232;2022-07-29T00:36:08;18.77;91.12
72756;SHT30;60881;55.002;73.232;2022-07-29T00:38:34;18.76;91.42
72756;SHT30;60881;55.002;73.232;2022-07-29T00:41:01;18.71;91.58
72756;SHT30;60881;55.002;73.232;2022-07-29T00:43:28;18.71;91.08
72756;SHT30;60881;55.002;73.232;2022-07-29T00:45:55;18.70;91.27
72756;SHT30;60881;55.002;73.232;2022-07-29T00:48:26;18.66;91.03
72756;SHT30;60881;55.002;73.232;2022-07-29T00:50:55;18.64;91.21
72756;SHT30;60881;55.002;73.232;2022-07-29T00:53:31;18.57;91.42
72756;SHT30;60881;55.002;73.232;2022-07-29T00:56:02;18.56;91.43
72756;SHT30;60881;55.002;73.232;2022-07-29T00:58:29;18.53;91.53
72756;SHT30;60881;55.002;73.232;2022-07-29T01:00:56;18.49;91.23
72756;SHT30;60881;55.002;73.232;2022-07-29T01:03:23;18.47;91.54
72756;SHT30;60881;55.002;73.232;2022-07-29T01:05:52;18.45;91.01
72756;SHT30;60881;55.002;73.232;2022-07-29T01:08:20;18.40;91.37
72756;SHT30;60881;55.002;73.232;2022-07-29T01:10:49;18.34;90.92
72756;SHT30;60881;55.002;73.232;2022-07-29T01:13:20;18.34;90.55
72756;SHT30;60881;55.002;73.232;2022-07-29T01:15:54;18.33;90.71
72756;SHT30;60881;55.002;73.232;2022-07-29T01:18:24;18.32;91.41
72756;SHT30;60881;55.002;73.232;2022-07-29T01:21:07;18.23;91.56
72756;SHT30;60881;55.002;73.232;2022-07-29T01:27:02;18.21;91.72
72756;SHT30;60881;55.002;73.232;2022-07-29T01:29:38;18.23;91.62
72756;SHT30;60881;55.002;73.232;2022-07-29T01:32:14;18.21;91.37
72756;SHT30;60881;55.002;73.232;2022-07-29T01:37:44;18.25;91.59
72756;SHT30;60881;55.002;73.232;2022-07-29T01:40:35;18.19;91.78
72756;SHT30;60881;55.002;73.232;2022-07-29T01:43:23;18.17;91.52
72756;SHT30;60881;55.002;73.232;2022-07-29T01:45:56;18.14;91.51
72756;SHT30;60881;55.002;73.232;2022-07-29T01:48:52;18.14;91.57
72756;SHT30;60881;55.002;73.232;2022-07-29T01:51:33;18.14;91.64
72756;SHT30;60881;55.002;73.232;2022-07-29T01:54:21;18.16;91.64
72756;SHT30;60881;55.002;73.232;2022-07-29T01:56:50;18.16;91.69
72756;SHT30;60881;55.002;73.232;2022-07-29T01:59:20;18.10;91.63
72756;SHT30;60881;55.002;73.232;2022-07-29T02:01:48;18.10;91.81
72756;SHT30;60881;55.002;73.232;2022-07-29T02:04:24;18.12;91.70
72756;SHT30;60881;55.002;73.232;2022-07-29T02:06:54;18.12;92.00
72756;SHT30;60881;55.002;73.232;2022-07-29T02:09:24;18.10;91.96
72756;SHT30;60881;55.002;73.232;2022-07-29T02:11:53;18.12;92.09
72756;SHT30;60881;55.002;73.232;2022-07-29T02:14:22;18.09;92.27
72756;SHT30;60881;55.002;73.232;2022-07-29T02:16:52;18.12;92.31
72756;SHT30;60881;55.002;73.232;2022-07-29T02:19:21;18.12;92.32
72756;SHT30;60881;55.002;73.232;2022-07-29T02:21:51;18.10;92.42
72756;SHT30;60881;55.002;73.232;2022-07-29T02:24:31;18.12;92.57
72756;SHT30;60881;55.002;73.232;2022-07-29T02:26:59;18.10;92.72
72756;SHT30;60881;55.002;73.232;2022-07-29T02:29:27;18.12;92.77
72756;SHT30;60881;55.002;73.232;2022-07-29T02:31:55;18.13;92.90
72756;SHT30;60881;55.002;73.232;2022-07-29T02:34:23;18.14;93.12
72756;SHT30;60881;55.002;73.232;2022-07-29T02:36:51;18.19;93.18
72756;SHT30;60881;55.002;73.232;2022-07-29T02:39:21;18.23;93.29
72756;SHT30;60881;55.002;73.232;2022-07-29T02:41:55;18.26;93.36
72756;SHT30;60881;55.002;73.232;2022-07-29T02:44:24;18.28;93.25
72756;SHT30;60881;55.002;73.232;2022-07-29T02:50:00;18.36;93.36
72756;SHT30;60881;55.002;73.232;2022-07-29T02:52:36;18.39;93.31
72756;SHT30;60881;55.002;73.232;2022-07-29T02:55:19;18.45;93.27
72756;SHT30;60881;55.002;73.232;2022-07-29T02:57:59;18.47;93.31
72756;SHT30;60881;55.002;73.232;2022-07-29T03:00:30;18.47;93.23
72756;SHT30;60881;55.002;73.232;2022-07-29T03:02:59;18.52;93.18
72756;SHT30;60881;55.002;73.232;2022-07-29T03:05:30;18.53;93.10
72756;SHT30;60881;55.002;73.232;2022-07-29T03:08:05;18.55;92.85
72756;SHT30;60881;55.002;73.232;2022-07-29T03:10:37;18.55;93.00
72756;SHT30;60881;55.002;73.232;2022-07-29T03:13:05;18.57;92.99
72756;SHT30;60881;55.002;73.232;2022-07-29T03:15:34;18.59;92.98
72756;SHT30;60881;55.002;73.232;2022-07-29T03:18:01;18.61;93.09
72756;SHT30;60881;55.002;73.232;2022-07-29T03:20:29;18.64;92.70
72756;SHT30;60881;55.002;73.232;2022-07-29T03:22:55;18.66;92.60
72756;SHT30;60881;55.002;73.232;2022-07-29T03:25:22;18.68;92.49
72756;SHT30;60881;55.002;73.232;2022-07-29T03:27:49;18.68;92.10
72756;SHT30;60881;55.002;73.232;2022-07-29T03:30:15;18.68;92.32
72756;SHT30;60881;55.002;73.232;2022-07-29T03:32:46;18.66;92.65
72756;SHT30;60881;55.002;73.232;2022-07-29T03:35:13;18.66;92.49
72756;SHT30;60881;55.002;73.232;2022-07-29T03:37:40;18.68;92.50
72756;SHT30;60881;55.002;73.232;2022-07-29T03:40:08;18.68;92.18
72756;SHT30;60881;55.002;73.232;2022-07-29T03:42:39;18.68;92.26
72756;SHT30;60881;55.002;73.232;2022-07-29T03:45:09;18.70;91.47
72756;SHT30;60881;55.002;73.232;2022-07-29T03:47:50;18.71;91.25
72756;SHT30;60881;55.002;73.232;2022-07-29T03:50:18;18.71;91.20
72756;SHT30;60881;55.002;73.232;2022-07-29T03:52:47;18.76;91.20
72756;SHT30;60881;55.002;73.232;2022-07-29T03:55:23;18.80;91.23
72756;SHT30;60881;55.002;73.232;2022-07-29T03:57:51;18.86;90.87
72756;SHT30;60881;55.002;73.232;2022-07-29T04:00:18;18.90;90.43
72756;SHT30;60881;55.002;73.232;2022-07-29T04:02:50;18.90;90.66
72756;SHT30;60881;55.002;73.232;2022-07-29T04:05:18;19.00;91.09
72756;SHT30;60881;55.002;73.232;2022-07-29T04:07:45;18.99;90.08
72756;SHT30;60881;55.002;73.232;2022-07-29T04:10:12;18.97;89.63
72756;SHT30;60881;55.002;73.232;2022-07-29T04:12:39;18.99;90.23
72756;SHT30;60881;55.002;73.232;2022-07-29T04:15:11;18.97;89.84
72756;SHT30;60881;55.002;73.232;2022-07-29T04:17:37;18.91;89.73
72756;SHT30;60881;55.002;73.232;2022-07-29T04:20:09;18.89;90.15
72756;SHT30;60881;55.002;73.232;2022-07-29T04:22:39;18.84;90.19
72756;SHT30;60881;55.002;73.232;2022-07-29T04:25:08;18.83;90.08
72756;SHT30;60881;55.002;73.232;2022-07-29T04:27:34;18.89;90.31
72756;SHT30;60881;55.002;73.232;2022-07-29T04:30:02;18.87;90.16
72756;SHT30;60881;55.002;73.232;2022-07-29T04:32:30;18.87;90.87
72756;SHT30;60881;55.002;73.232;2022-07-29T04:34:57;18.97;91.23
72756;SHT30;60881;55.002;73.232;2022-07-29T04:37:34;19.10;91.20
72756;SHT30;60881;55.002;73.232;2022-07-29T04:40:02;19.24;90.57
72756;SHT30;60881;55.002;73.232;2022-07-29T04:42:30;19.39;89.57
72756;SHT30;60881;55.002;73.232;2022-07-29T04:44:57;19.53;89.57
72756;SHT30;60881;55.002;73.232;2022-07-29T04:47:28;19.69;89.15
72756;SHT30;60881;55.002;73.232;2022-07-29T04:49:55;19.83;88.92
72756;SHT30;60881;55.002;73.232;2022-07-29T04:52:22;19.93;88.52
72756;SHT30;60881;55.002;73.232;2022-07-29T04:54:49;20.09;88.19
72756;SHT30;60881;55.002;73.232;2022-07-29T04:57:15;20.15;88.54
72756;SHT30;60881;55.002;73.232;2022-07-29T04:59:49;20.19;87.52
72756;SHT30;60881;55.002;73.232;2022-07-29T05:02:15;20.21;87.93
72756;SHT30;60881;55.002;73.232;2022-07-29T05:04:42;20.22;87.19
72756;SHT30;60881;55.002;73.232;2022-07-29T05:07:11;20.16;87.57
72756;SHT30;60881;55.002;73.232;2022-07-29T05:09:38;20.19;87.09
72756;SHT30;60881;55.002;73.232;2022-07-29T05:12:06;20.23;86.80
72756;SHT30;60881;55.002;73.232;2022-07-29T05:14:33;20.33;86.82
72756;SHT30;60881;55.002;73.232;2022-07-29T05:17:06;20.36;86.86
72756;SHT30;60881;55.002;73.232;2022-07-29T05:19:36;20.40;86.37
72756;SHT30;60881;55.002;73.232;2022-07-29T05:22:04;20.39;86.71
72756;SHT30;60881;55.002;73.232;2022-07-29T05:24:31;20.40;85.94
72756;SHT30;60881;55.002;73.232;2022-07-29T05:26:58;20.40;85.51
72756;SHT30;60881;55.002;73.232;2022-07-29T05:29:25;20.45;85.53
72756;SHT30;60881;55.002;73.232;2022-07-29T05:31:54;20.57;85.64
72756;SHT30;60881;55.002;73.232;2022-07-29T05:34:20;20.68;85.63
72756;SHT30;60881;55.002;73.232;2022-07-29T05:36:46;20.80;84.01
72756;SHT30;60881;55.002;73.232;2022-07-29T05:39:14;20.81;83.35
72756;SHT30;60881;55.002;73.232;2022-07-29T05:41:40;20.84;83.01
72756;SHT30;60881;55.002;73.232;2022-07-29T05:44:08;20.94;82.71
72756;SHT30;60881;55.002;73.232;2022-07-29T05:46:34;21.03;82.51
72756;SHT30;60881;55.002;73.232;2022-07-29T05:49:02;21.13;83.15
72756;SHT30;60881;55.002;73.232;2022-07-29T05:51:29;21.22;83.58
72756;SHT30;60881;55.002;73.232;2022-07-29T05:53:57;21.26;82.61
72756;SHT30;60881;55.002;73.232;2022-07-29T05:56:25;21.23;82.24
72756;SHT30;60881;55.002;73.232;2022-07-29T05:58:57;21.20;81.88
72756;SHT30;60881;55.002;73.232;2022-07-29T06:01:28;21.15;81.94
72756;SHT30;60881;55.002;73.232;2022-07-29T06:04:05;21.20;82.26
72756;SHT30;60881;55.002;73.232;2022-07-29T06:06:34;21.31;82.36
72756;SHT30;60881;55.002;73.232;2022-07-29T06:09:01;21.36;83.20
72756;SHT30;60881;55.002;73.232;2022-07-29T06:11:28;21.44;81.52
72756;SHT30;60881;55.002;73.232;2022-07-29T06:13:54;21.54;81.37
72756;SHT30;60881;55.002;73.232;2022-07-29T06:16:26;21.57;80.29
72756;SHT30;60881;55.002;73.232;2022-07-29T06:18:53;21.61;80.61
72756;SHT30;60881;55.002;73.232;2022-07-29T06:21:20;21.62;81.23
72756;SHT30;60881;55.002;73.232;2022-07-29T06:23:48;21.67;81.93
72756;SHT30;60881;55.002;73.232;2022-07-29T06:26:15;21.70;81.50
72756;SHT30;60881;55.002;73.232;2022-07-29T06:28:43;21.84;81.24
72756;SHT30;60881;55.002;73.232;2022-07-29T06:31:12;21.88;81.57
72756;SHT30;60881;55.002;73.232;2022-07-29T06:33:39;21.92;81.06
72756;SHT30;60881;55.002;73.232;2022-07-29T06:36:05;21.94;81.16
72756;SHT30;60881;55.002;73.232;2022-07-29T06:38:36;22.01;80.66
72756;SHT30;60881;55.002;73.232;2022-07-29T06:41:04;22.12;80.67
72756;SHT30;60881;55.002;73.232;2022-07-29T06:43:38;22.25;80.25
72756;SHT30;60881;55.002;73.232;2022-07-29T06:46:15;22.29;79.64
72756;SHT30;60881;55.002;73.232;2022-07-29T06:48:48;22.44;80.47
72756;SHT30;60881;55.002;73.232;2022-07-29T06:51:15;22.55;79.79
72756;SHT30;60881;55.002;73.232;2022-07-29T06:53:42;22.62;79.05
72756;SHT30;60881;55.002;73.232;2022-07-29T06:56:09;22.60;79.47
72756;SHT30;60881;55.002;73.232;2022-07-29T06:58:36;22.66;78.26
72756;SHT30;60881;55.002;73.232;2022-07-29T07:01:04;22.75;79.57
72756;SHT30;60881;55.002;73.232;2022-07-29T07:03:31;22.77;76.96
72756;SHT30;60881;55.002;73.232;2022-07-29T07:05:58;22.88;78.28
72756;SHT30;60881;55.002;73.232;2022-07-29T07:08:25;22.89;78.05
72756;SHT30;60881;55.002;73.232;2022-07-29T07:10:52;22.99;77.08
72756;SHT30;60881;55.002;73.232;2022-07-29T07:13:19;23.16;76.70
72756;SHT30;60881;55.002;73.232;2022-07-29T07:15:46;23.23;78.03
72756;SHT30;60881;55.002;73.232;2022-07-29T07:18:17;23.34;77.11
72756;SHT30;60881;55.002;73.232;2022-07-29T07:20:54;23.37;77.13
72756;SHT30;60881;55.002;73.232;2022-07-29T07:23:20;23.37;76.11
72756;SHT30;60881;55.002;73.232;2022-07-29T07:25:47;23.40;76.52
72756;SHT30;60881;55.002;73.232;2022-07-29T07:28:15;23.42;77.19
72756;SHT30;60881;55.002;73.232;2022-07-29T07:30:41;23.42;78.46
72756;SHT30;60881;55.002;73.232;2022-07-29T07:33:12;23.50;76.02
72756;SHT30;60881;55.002;73.232;2022-07-29T07:35:39;23.61;77.59
72756;SHT30;60881;55.002;73.232;2022-07-29T07:38:16;23.73;77.04
72756;SHT30;60881;55.002;73.232;2022-07-29T07:40:43;23.83;76.78
72756;SHT30;60881;55.002;73.232;2022-07-29T07:43:09;23.83;76.10
72756;SHT30;60881;55.002;73.232;2022-07-29T07:45:35;23.81;74.90
72756;SHT30;60881;55.002;73.232;2022-07-29T07:48:03;23.84;75.93
72756;SHT30;60881;55.002;73.232;2022-07-29T07:50:31;23.91;75.28
72756;SHT30;60881;55.002;73.232;2022-07-29T07:52:57;24.01;74.44
72756;SHT30;60881;55.002;73.232;2022-07-29T07:55:24;24.13;73.82
72756;SHT30;60881;55.002;73.232;2022-07-29T07:58:01;24.22;72.68
72756;SHT30;60881;55.002;73.232;2022-07-29T08:00:28;24.24;72.83
72756;SHT30;60881;55.002;73.232;2022-07-29T08:02:54;24.28;71.73
72756;SHT30;60881;55.002;73.232;2022-07-29T08:05:22;24.35;73.26
72756;SHT30;60881;55.002;73.232;2022-07-29T08:07:49;24.37;70.39
72756;SHT30;60881;55.002;73.232;2022-07-29T08:10:17;24.45;72.81
72756;SHT30;60881;55.002;73.232;2022-07-29T08:13:07;24.47;71.52
72756;SHT30;60881;55.002;73.232;2022-07-29T08:15:39;24.47;70.71
72756;SHT30;60881;55.002;73.232;2022-07-29T08:18:06;24.51;70.02
72756;SHT30;60881;55.002;73.232;2022-07-29T08:20:32;24.54;70.10
72756;SHT30;60881;55.002;73.232;2022-07-29T08:23:02;24.62;70.03
72756;SHT30;60881;55.002;73.232;2022-07-29T08:25:37;24.68;69.32
72756;SHT30;60881;55.002;73.232;2022-07-29T08:28:07;24.81;71.00
72756;SHT30;60881;55.002;73.232;2022-07-29T08:30:34;24.95;68.98
72756;SHT30;60881;55.002;73.232;2022-07-29T08:33:02;24.92;67.82
72756;SHT30;60881;55.002;73.232;2022-07-29T08:35:29;24.86;69.14
72756;SHT30;60881;55.002;73.232;2022-07-29T08:37:55;24.83;69.05
72756;SHT30;60881;55.002;73.232;2022-07-29T08:40:23;24.88;68.68
72756;SHT30;60881;55.002;73.232;2022-07-29T08:42:51;24.93;68.61
72756;SHT30;60881;55.002;73.232;2022-07-29T08:45:23;24.96;69.15
72756;SHT30;60881;55.002;73.232;2022-07-29T08:47:52;25.01;67.87
72756;SHT30;60881;55.002;73.232;2022-07-29T08:50:19;25.08;68.49
72756;SHT30;60881;55.002;73.232;2022-07-29T08:52:47;25.25;67.79
72756;SHT30;60881;55.002;73.232;2022-07-29T08:55:25;25.37;64.68
72756;SHT30;60881;55.002;73.232;2022-07-29T08:57:51;25.30;64.96
72756;SHT30;60881;55.002;73.232;2022-07-29T09:00:18;25.22;66.73
72756;SHT30;60881;55.002;73.232;2022-07-29T09:02:47;25.23;67.28
72756;SHT30;60881;55.002;73.232;2022-07-29T09:05:18;25.35;67.50
72756;SHT30;60881;55.002;73.232;2022-07-29T09:07:45;25.33;67.57
72756;SHT30;60881;55.002;73.232;2022-07-29T09:10:14;25.30;66.85
72756;SHT30;60881;55.002;73.232;2022-07-29T09:12:40;25.26;66.44
72756;SHT30;60881;55.002;73.232;2022-07-29T09:15:08;25.19;67.66
72756;SHT30;60881;55.002;73.232;2022-07-29T09:17:43;25.05;66.66
72756;SHT30;60881;55.002;73.232;2022-07-29T09:20:16;24.93;67.50
72756;SHT30;60881;55.002;73.232;2022-07-29T09:22:43;24.86;67.95
72756;SHT30;60881;55.002;73.232;2022-07-29T09:25:36;24.85;68.08
72756;SHT30;60881;55.002;73.232;2022-07-29T09:28:15;24.82;68.37
72756;SHT30;60881;55.002;73.232;2022-07-29T09:30:55;24.79;68.07
72756;SHT30;60881;55.002;73.232;2022-07-29T09:33:33;24.82;67.78
72756;SHT30;60881;55.002;73.232;2022-07-29T09:36:08;24.82;68.41
72756;SHT30;60881;55.002;73.232;2022-07-29T09:38:40;24.81;69.00
72756;SHT30;60881;55.002;73.232;2022-07-29T09:41:07;24.95;68.85
72756;SHT30;60881;55.002;73.232;2022-07-29T09:43:35;25.16;67.84
72756;SHT30;60881;55.002;73.232;2022-07-29T09:46:12;25.43;67.02
72756;SHT30;60881;55.002;73.232;2022-07-29T09:48:38;25.37;67.87
72756;SHT30;60881;55.002;73.232;2022-07-29T09:51:19;25.26;69.51
72756;SHT30;60881;55.002;73.232;2022-07-29T09:53:46;25.13;68.84
72756;SHT30;60881;55.002;73.232;2022-07-29T09:56:12;25.05;69.02
72756;SHT30;60881;55.002;73.232;2022-07-29T09:59:05;25.11;68.91
72756;SHT30;60881;55.002;73.232;2022-07-29T10:01:32;25.09;69.19
72756;SHT30;60881;55.002;73.232;2022-07-29T10:03:59;25.19;69.32
72756;SHT30;60881;55.002;73.232;2022-07-29T10:06:25;25.27;68.67
72756;SHT30;60881;55.002;73.232;2022-07-29T10:08:52;25.33;68.26
72756;SHT30;60881;55.002;73.232;2022-07-29T10:11:20;25.40;68.14
72756;SHT30;60881;55.002;73.232;2022-07-29T10:13:47;25.42;68.62
72756;SHT30;60881;55.002;73.232;2022-07-29T10:16:17;25.47;69.00
72756;SHT30;60881;55.002;73.232;2022-07-29T10:18:44;25.46;67.88
72756;SHT30;60881;55.002;73.232;2022-07-29T10:21:12;25.37;67.72
72756;SHT30;60881;55.002;73.232;2022-07-29T10:23:39;25.29;68.32
72756;SHT30;60881;55.002;73.232;2022-07-29T10:26:07;25.22;67.66
72756;SHT30;60881;55.002;73.232;2022-07-29T10:28:34;25.15;68.01
72756;SHT30;60881;55.002;73.232;2022-07-29T10:31:14;25.05;67.19
72756;SHT30;60881;55.002;73.232;2022-07-29T10:34:04;24.98;67.58
72756;SHT30;60881;55.002;73.232;2022-07-29T10:39:54;24.88;67.01
72756;SHT30;60881;55.002;73.232;2022-07-29T10:42:25;24.92;66.47
72756;SHT30;60881;55.002;73.232;2022-07-29T10:44:52;25.02;66.90
72756;SHT30;60881;55.002;73.232;2022-07-29T10:47:24;25.16;67.27
72756;SHT30;60881;55.002;73.232;2022-07-29T10:50:04;25.22;67.83
72756;SHT30;60881;55.002;73.232;2022-07-29T10:52:52;25.20;68.17
72756;SHT30;60881;55.002;73.232;2022-07-29T10:55:39;25.11;68.41
72756;SHT30;60881;55.002;73.232;2022-07-29T10:58:15;25.03;67.39
72756;SHT30;60881;55.002;73.232;2022-07-29T11:00:43;25.09;68.49
72756;SHT30;60881;55.002;73.232;2022-07-29T11:03:42;25.08;68.56
72756;SHT30;60881;55.002;73.232;2022-07-29T11:06:10;25.11;67.36
72756;SHT30;60881;55.002;73.232;2022-07-29T11:08:39;25.12;68.10
72756;SHT30;60881;55.002;73.232;2022-07-29T11:13:57;25.01;67.88
72756;SHT30;60881;55.002;73.232;2022-07-29T11:16:24;24.92;67.19
72756;SHT30;60881;55.002;73.232;2022-07-29T11:21:39;24.86;69.25
72756;SHT30;60881;55.002;73.232;2022-07-29T11:24:25;24.89;68.36
72756;SHT30;60881;55.002;73.232;2022-07-29T11:27:19;24.98;68.92
72756;SHT30;60881;55.002;73.232;2022-07-29T11:32:21;24.93;66.59
72756;SHT30;60881;55.002;73.232;2022-07-29T11:35:11;24.96;67.27
72756;SHT30;60881;55.002;73.232;2022-07-29T11:37:37;24.92;66.03
72756;SHT30;60881;55.002;73.232;2022-07-29T11:47:40;24.98;67.75
72756;SHT30;60881;55.002;73.232;2022-07-29T11:50:10;24.99;66.85
72756;SHT30;60881;55.002;73.232;2022-07-29T11:52:40;24.98;66.47
72756;SHT30;60881;55.002;73.232;2022-07-29T11:55:16;24.95;65.24
72756;SHT30;60881;55.002;73.232;2022-07-29T12:00:23;24.93;65.42
72756;SHT30;60881;55.002;73.232;2022-07-29T12:02:51;24.89;65.72
72756;SHT30;60881;55.002;73.232;2022-07-29T12:05:19;24.82;66.52
72756;SHT30;60881;55.002;73.232;2022-07-29T12:07:46;24.68;67.46
72756;SHT30;60881;55.002;73.232;2022-07-29T12:10:13;24.64;66.99
72756;SHT30;60881;55.002;73.232;2022-07-29T12:12:40;24.62;65.79
72756;SHT30;60881;55.002;73.232;2022-07-29T12:15:17;24.68;66.26
72756;SHT30;60881;55.002;73.232;2022-07-29T12:17:47;24.69;65.53
72756;SHT30;60881;55.002;73.232;2022-07-29T12:20:22;24.69;65.53
72756;SHT30;60881;55.002;73.232;2022-07-29T12:22:49;24.71;65.97
72756;SHT30;60881;55.002;73.232;2022-07-29T12:25:25;24.67;65.03
72756;SHT30;60881;55.002;73.232;2022-07-29T12:28:00;24.62;65.64
72756;SHT30;60881;55.002;73.232;2022-07-29T12:30:46;24.64;63.69
72756;SHT30;60881;55.002;73.232;2022-07-29T12:33:23;24.65;65.71
72756;SHT30;60881;55.002;73.232;2022-07-29T12:35:56;24.52;64.77
72756;SHT30;60881;55.002;73.232;2022-07-29T12:38:24;24.48;64.88
72756;SHT30;60881;55.002;73.232;2022-07-29T12:40:52;24.47;65.41
72756;SHT30;60881;55.002;73.232;2022-07-29T12:43:27;24.47;65.82
72756;SHT30;60881;55.002;73.232;2022-07-29T12:45:55;24.49;64.83
72756;SHT30;60881;55.002;73.232;2022-07-29T12:48:42;24.58;64.45
72756;SHT30;60881;55.002;73.232;2022-07-29T12:51:10;24.61;64.59
72756;SHT30;60881;55.002;73.232;2022-07-29T12:53:39;24.59;64.47
72756;SHT30;60881;55.002;73.232;2022-07-29T12:56:15;24.61;63.76
72756;SHT30;60881;55.002;73.232;2022-07-29T12:58:41;24.55;63.99
72756;SHT30;60881;55.002;73.232;2022-07-29T13:01:16;24.57;64.47
72756;SHT30;60881;55.002;73.232;2022-07-29T13:03:49;24.61;63.50
72756;SHT30;60881;55.002;73.232;2022-07-29T13:09:15;24.72;64.43
72756;SHT30;60881;55.002;73.232;2022-07-29T13:11:50;24.68;63.42
72756;SHT30;60881;55.002;73.232;2022-07-29T13:17:22;24.59;63.73
72756;SHT30;60881;55.002;73.232;2022-07-29T13:19:52;24.55;63.20
72756;SHT30;60881;55.002;73.232;2022-07-29T13:22:23;24.51;63.98
72756;SHT30;60881;55.002;73.232;2022-07-29T13:24:57;24.54;62.75
72756;SHT30;60881;55.002;73.232;2022-07-29T13:27:25;24.51;62.75
72756;SHT30;60881;55.002;73.232;2022-07-29T13:29:53;24.52;63.52
72756;SHT30;60881;55.002;73.232;2022-07-29T13:32:23;24.51;63.39
72756;SHT30;60881;55.002;73.232;2022-07-29T13:34:50;24.47;63.77
72756;SHT30;60881;55.002;73.232;2022-07-29T13:37:18;24.38;62.45
72756;SHT30;60881;55.002;73.232;2022-07-29T13:39:46;24.37;62.04
72756;SHT30;60881;55.002;73.232;2022-07-29T13:42:13;24.37;63.07
72756;SHT30;60881;55.002;73.232;2022-07-29T13:44:40;24.32;62.17
72756;SHT30;60881;55.002;73.232;2022-07-29T13:47:07;24.22;61.96
72756;SHT30;60881;55.002;73.232;2022-07-29T13:49:34;24.20;62.02
72756;SHT30;60881;55.002;73.232;2022-07-29T13:52:02;24.15;62.41
72756;SHT30;60881;55.002;73.232;2022-07-29T13:54:29;24.11;62.35
72756;SHT30;60881;55.002;73.232;2022-07-29T13:56:55;24.08;62.28
72756;SHT30;60881;55.002;73.232;2022-07-29T13:59:31;24.03;62.73
72756;SHT30;60881;55.002;73.232;2022-07-29T14:01:59;23.97;62.28
72756;SHT30;60881;55.002;73.232;2022-07-29T14:04:26;23.88;62.43
72756;SHT30;60881;55.002;73.232;2022-07-29T14:06:54;23.87;62.52
72756;SHT30;60881;55.002;73.232;2022-07-29T14:09:20;23.81;62.02
72756;SHT30;60881;55.002;73.232;2022-07-29T14:11:56;23.74;63.30
72756;SHT30;60881;55.002;73.232;2022-07-29T14:14:23;23.70;63.02
72756;SHT30;60881;55.002;73.232;2022-07-29T14:17:00;23.64;63.25
72756;SHT30;60881;55.002;73.232;2022-07-29T14:19:28;23.60;63.94
72756;SHT30;60881;55.002;73.232;2022-07-29T14:21:55;23.56;63.10
72756;SHT30;60881;55.002;73.232;2022-07-29T14:24:26;23.51;64.02
72756;SHT30;60881;55.002;73.232;2022-07-29T14:26:53;23.51;63.07
72756;SHT30;60881;55.002;73.232;2022-07-29T14:29:19;23.45;63.42
72756;SHT30;60881;55.002;73.232;2022-07-29T14:31:47;23.42;63.94
72756;SHT30;60881;55.002;73.232;2022-07-29T14:34:14;23.31;63.84
72756;SHT30;60881;55.002;73.232;2022-07-29T14:36:41;23.19;63.20
72756;SHT30;60881;55.002;73.232;2022-07-29T14:39:18;23.23;63.56
72756;SHT30;60881;55.002;73.232;2022-07-29T14:41:50;23.14;63.66
72756;SHT30;60881;55.002;73.232;2022-07-29T14:44:17;23.03;64.33
72756;SHT30;60881;55.002;73.232;2022-07-29T14:46:44;22.96;64.97
72756;SHT30;60881;55.002;73.232;2022-07-29T14:49:10;22.93;65.17
72756;SHT30;60881;55.002;73.232;2022-07-29T14:51:37;22.83;65.49
72756;SHT30;60881;55.002;73.232;2022-07-29T14:54:13;22.76;65.71
72756;SHT30;60881;55.002;73.232;2022-07-29T14:56:41;22.65;65.37
72756;SHT30;60881;55.002;73.232;2022-07-29T14:59:08;22.62;66.16
72756;SHT30;60881;55.002;73.232;2022-07-29T15:01:35;22.52;64.71
72756;SHT30;60881;55.002;73.232;2022-07-29T15:04:02;22.45;65.26
72756;SHT30;60881;55.002;73.232;2022-07-29T15:06:29;22.41;65.26
72756;SHT30;60881;55.002;73.232;2022-07-29T15:08:56;22.29;65.90
72756;SHT30;60881;55.002;73.232;2022-07-29T15:11:23;22.18;66.00
72756;SHT30;60881;55.002;73.232;2022-07-29T15:13:49;22.16;65.47
72756;SHT30;60881;55.002;73.232;2022-07-29T15:16:26;22.08;65.90
72756;SHT30;60881;55.002;73.232;2022-07-29T15:18:52;22.02;65.14
72756;SHT30;60881;55.002;73.232;2022-07-29T15:21:19;21.97;65.89
72756;SHT30;60881;55.002;73.232;2022-07-29T15:23:45;21.84;65.69
72756;SHT30;60881;55.002;73.232;2022-07-29T15:26:11;21.78;65.23
72756;SHT30;60881;55.002;73.232;2022-07-29T15:28:38;21.73;65.17
72756;SHT30;60881;55.002;73.232;2022-07-29T15:31:05;21.70;65.19
72756;SHT30;60881;55.002;73.232;2022-07-29T15:33:32;21.65;65.17
72756;SHT30;60881;55.002;73.232;2022-07-29T15:35:59;21.55;65.31
72756;SHT30;60881;55.002;73.232;2022-07-29T15:38:25;21.50;65.59
72756;SHT30;60881;55.002;73.232;2022-07-29T15:40:55;21.43;66.12
72756;SHT30;60881;55.002;73.232;2022-07-29T15:43:22;21.36;66.71
72756;SHT30;60881;55.002;73.232;2022-07-29T15:45:49;21.26;66.92
72756;SHT30;60881;55.002;73.232;2022-07-29T15:48:41;21.17;66.95
72756;SHT30;60881;55.002;73.232;2022-07-29T15:51:07;21.10;67.47
72756;SHT30;60881;55.002;73.232;2022-07-29T15:53:34;21.03;67.29
72756;SHT30;60881;55.002;73.232;2022-07-29T15:56:01;20.94;67.68
72756;SHT30;60881;55.002;73.232;2022-07-29T15:58:28;20.90;67.95
72756;SHT30;60881;55.002;73.232;2022-07-29T16:01:00;20.77;67.98
72756;SHT30;60881;55.002;73.232;2022-07-29T16:03:28;20.70;68.08
72756;SHT30;60881;55.002;73.232;2022-07-29T16:05:55;20.59;68.28
72756;SHT30;60881;55.002;73.232;2022-07-29T16:08:27;20.49;68.59
72756;SHT30;60881;55.002;73.232;2022-07-29T16:10:53;20.40;68.52